createdAt,value
2022-10-17T00:01:37.375Z,89.00
2022-10-17T00:04:04.353Z,88.60
2022-10-17T00:06:31.056Z,88.70
2022-10-17T00:08:57.774Z,89.30
2022-10-17T00:11:24.868Z,89.20
2022-10-17T00:13:54.653Z,89.60
2022-10-17T00:16:30.158Z,90.00
2022-10-17T00:18:57.401Z,88.70
2022-10-17T00:21:25.292Z,88.60
2022-10-17T00:23:52.448Z,88.30
2022-10-17T00:26:19.585Z,87.60
2022-10-17T00:28:50.921Z,86.70
2022-10-17T00:31:19.556Z,86.90
2022-10-17T00:33:47.203Z,87.10
2022-10-17T00:36:16.974Z,87.30
2022-10-17T00:38:46.317Z,86.20
2022-10-17T00:41:19.403Z,85.70
2022-10-17T00:43:53.337Z,84.50
2022-10-17T00:46:21.734Z,83.80
2022-10-17T00:48:50.982Z,82.70
2022-10-17T00:51:21.106Z,82.80
2022-10-17T00:53:48.257Z,82.90
2022-10-17T00:56:16.477Z,82.40
2022-10-17T00:58:43.239Z,82.50
2022-10-17T01:01:10.044Z,83.20
2022-10-17T01:03:36.958Z,82.00
2022-10-17T01:06:03.753Z,82.10
2022-10-17T01:08:30.608Z,82.30
2022-10-17T01:11:03.204Z,82.30
2022-10-17T01:13:53.050Z,83.20
2022-10-17T01:16:44.892Z,84.40
2022-10-17T01:19:44.597Z,84.30
2022-10-17T01:22:26.286Z,84.40
2022-10-17T01:25:17.848Z,84.00
2022-10-17T01:28:11.129Z,84.40
2022-10-17T01:30:49.211Z,83.80
2022-10-17T01:33:27.929Z,84.10
2022-10-17T01:36:01.715Z,84.00
2022-10-17T01:38:36.880Z,84.00
2022-10-17T01:41:12.368Z,83.20
2022-10-17T01:44:21.356Z,82.20
2022-10-17T01:46:51.826Z,82.30
2022-10-17T01:49:23.098Z,82.70
2022-10-17T01:52:04.828Z,83.40
2022-10-17T01:54:42.652Z,84.30
2022-10-17T01:57:28.060Z,84.60
2022-10-17T01:59:56.179Z,84.90
2022-10-17T02:02:24.793Z,84.80
2022-10-17T02:04:53.284Z,85.90
2022-10-17T02:07:20.027Z,86.30
2022-10-17T02:09:46.769Z,86.70
2022-10-17T02:12:24.974Z,87.10
2022-10-17T02:15:00.490Z,87.10
2022-10-17T02:17:56.995Z,88.00
2022-10-17T02:20:31.750Z,88.60
2022-10-17T02:24:00.047Z,88.40
2022-10-17T02:26:32.515Z,87.50
2022-10-17T02:29:08.621Z,87.40
2022-10-17T02:31:51.438Z,87.50
2022-10-17T02:34:24.917Z,87.30
2022-10-17T02:36:58.051Z,87.50
2022-10-17T02:39:27.022Z,86.50
2022-10-17T02:41:57.495Z,85.80
2022-10-17T02:44:25.111Z,85.60
2022-10-17T02:47:14.032Z,85.30
2022-10-17T02:49:44.803Z,85.80
2022-10-17T02:52:17.648Z,85.10
2022-10-17T02:55:06.238Z,85.60
2022-10-17T02:57:38.379Z,85.90
2022-10-17T03:00:08.790Z,85.30
2022-10-17T03:02:48.686Z,85.00
2022-10-17T03:05:19.489Z,84.70
2022-10-17T03:07:46.424Z,84.80
2022-10-17T03:10:13.330Z,84.60
2022-10-17T03:12:40.108Z,85.10
2022-10-17T03:15:07.367Z,85.20
2022-10-17T03:17:34.446Z,84.50
2022-10-17T03:20:01.399Z,83.80
2022-10-17T03:22:28.413Z,83.70
2022-10-17T03:24:55.272Z,84.90
2022-10-17T03:27:22.010Z,84.70
2022-10-17T03:29:48.707Z,84.50
2022-10-17T03:32:15.546Z,84.20
2022-10-17T03:34:42.419Z,84.60
2022-10-17T03:37:09.174Z,85.10
2022-10-17T03:39:35.920Z,85.10
2022-10-17T03:42:02.718Z,84.30
2022-10-17T03:44:29.419Z,84.50
2022-10-17T03:46:57.599Z,83.90
2022-10-17T03:49:24.368Z,84.00
2022-10-17T03:51:51.121Z,83.60
2022-10-17T03:54:17.916Z,83.20
2022-10-17T03:56:44.647Z,83.90
2022-10-17T03:59:15.374Z,84.60
2022-10-17T04:01:42.430Z,84.60
2022-10-17T04:04:09.967Z,85.10
2022-10-17T04:06:37.717Z,84.60
2022-10-17T04:09:05.492Z,84.60
2022-10-17T04:11:32.304Z,84.70
2022-10-17T04:13:59.699Z,84.90
2022-10-17T04:16:27.595Z,86.40
2022-10-17T04:18:59.143Z,86.30
2022-10-17T04:21:27.542Z,86.40
2022-10-17T04:23:59.566Z,85.70
2022-10-17T04:26:27.216Z,85.30
2022-10-17T04:28:53.959Z,85.50
2022-10-17T04:31:20.781Z,85.40
2022-10-17T04:33:49.015Z,85.30
2022-10-17T04:36:18.276Z,84.90
2022-10-17T04:38:45.222Z,84.90
2022-10-17T04:41:14.458Z,84.60
2022-10-17T04:43:41.315Z,84.00
2022-10-17T04:46:11.726Z,85.00
2022-10-17T04:48:39.227Z,84.50
2022-10-17T04:51:08.576Z,84.00
2022-10-17T04:53:37.782Z,83.70
2022-10-17T04:56:25.121Z,84.30
2022-10-17T04:58:52.427Z,85.00
2022-10-17T05:01:23.683Z,85.00
2022-10-17T05:03:51.196Z,85.30
2022-10-17T05:06:24.199Z,85.00
2022-10-17T05:08:51.329Z,84.20
2022-10-17T05:11:18.225Z,85.10
2022-10-17T05:13:45.199Z,85.00
2022-10-17T05:16:12.214Z,84.80
2022-10-17T05:18:38.902Z,84.60
2022-10-17T05:21:05.762Z,84.70
2022-10-17T05:23:32.894Z,84.50
2022-10-17T05:25:59.722Z,84.90
2022-10-17T05:28:26.507Z,83.90
2022-10-17T05:30:53.303Z,84.80
2022-10-17T05:33:20.191Z,84.60
2022-10-17T05:35:46.927Z,84.50
2022-10-17T05:38:13.751Z,85.10
2022-10-17T05:40:40.457Z,84.80
2022-10-17T05:43:07.199Z,85.20
2022-10-17T05:45:33.967Z,84.50
2022-10-17T05:48:00.639Z,84.40
2022-10-17T05:50:27.474Z,84.40
2022-10-17T05:52:55.060Z,85.00
2022-10-17T05:55:22.256Z,86.30
2022-10-17T05:57:49.943Z,86.60
2022-10-17T06:00:17.063Z,85.30
2022-10-17T06:02:46.030Z,84.90
2022-10-17T06:05:13.682Z,84.40
2022-10-17T06:07:40.943Z,84.40
2022-10-17T06:10:08.228Z,84.40
2022-10-17T06:12:34.914Z,84.40
2022-10-17T06:15:01.653Z,84.00
2022-10-17T06:17:29.186Z,83.70
2022-10-17T06:19:56.225Z,83.70
2022-10-17T06:22:23.181Z,84.00
2022-10-17T06:24:49.989Z,83.80
2022-10-17T06:27:16.663Z,83.90
2022-10-17T06:29:43.383Z,83.50
2022-10-17T06:32:12.734Z,82.80
2022-10-17T06:34:41.891Z,82.70
2022-10-17T06:37:08.673Z,83.30
2022-10-17T06:39:35.930Z,83.30
2022-10-17T06:42:03.934Z,82.70
2022-10-17T06:44:32.037Z,83.30
2022-10-17T06:46:59.966Z,83.20
2022-10-17T06:49:27.564Z,83.00
2022-10-17T06:51:54.420Z,83.30
2022-10-17T06:54:21.379Z,82.00
2022-10-17T06:56:48.301Z,81.70
2022-10-17T06:59:15.734Z,81.60
2022-10-17T07:01:46.069Z,81.40
2022-10-17T07:04:14.212Z,81.20
2022-10-17T07:06:40.968Z,80.30
2022-10-17T07:09:07.920Z,77.80
2022-10-17T07:11:37.775Z,76.70
2022-10-17T07:14:04.694Z,73.30
2022-10-17T07:16:31.663Z,70.30
2022-10-17T07:18:58.358Z,68.30
2022-10-17T07:21:25.612Z,65.80
2022-10-17T07:23:52.534Z,65.70
2022-10-17T07:26:19.759Z,62.70
2022-10-17T07:28:51.208Z,61.50
2022-10-17T07:31:19.583Z,59.60
2022-10-17T07:36:18.839Z,59.50
2022-10-17T07:38:45.699Z,58.30
2022-10-17T07:41:17.757Z,57.40
2022-10-17T07:43:47.639Z,55.30
2022-10-17T07:46:14.345Z,54.60
2022-10-17T07:48:41.405Z,53.90
2022-10-17T07:51:09.517Z,53.70
2022-10-17T07:53:38.081Z,53.30
2022-10-17T07:56:07.067Z,52.00
2022-10-17T07:58:34.389Z,51.20
2022-10-17T08:03:34.577Z,50.30
2022-10-17T08:06:02.314Z,50.10
2022-10-17T08:08:29.457Z,49.00
2022-10-17T08:11:05.995Z,48.40
2022-10-17T08:13:33.628Z,48.60
2022-10-17T08:16:05.742Z,47.50
2022-10-17T08:18:32.720Z,48.10
2022-10-17T08:21:01.082Z,47.30
2022-10-17T08:23:28.977Z,47.80
2022-10-17T08:25:58.656Z,47.80
2022-10-17T08:28:25.403Z,46.80
2022-10-17T08:30:52.189Z,46.80
2022-10-17T08:33:18.884Z,46.90
2022-10-17T08:35:45.607Z,46.80
2022-10-17T08:38:13.426Z,46.20
2022-10-17T08:40:42.869Z,46.30
2022-10-17T08:43:18.364Z,46.50
2022-10-17T08:45:54.784Z,46.20
2022-10-17T08:48:25.451Z,46.50
2022-10-17T08:51:16.623Z,47.40
2022-10-17T08:53:55.675Z,46.30
2022-10-17T08:59:17.778Z,46.60
2022-10-17T09:02:00.294Z,45.80
2022-10-17T09:04:46.114Z,45.30
2022-10-17T09:07:26.350Z,45.10
2022-10-17T09:09:59.320Z,44.70
2022-10-17T09:12:44.183Z,44.30
2022-10-17T09:15:37.033Z,44.50
2022-10-17T09:18:09.801Z,44.40
2022-10-17T09:20:53.973Z,44.60
2022-10-17T09:23:25.111Z,45.10
2022-10-17T09:25:58.361Z,44.00
2022-10-17T09:28:35.791Z,43.70
2022-10-17T09:31:22.569Z,42.80
2022-10-17T09:33:55.426Z,42.60
2022-10-17T09:36:24.458Z,41.30
2022-10-17T09:39:04.666Z,40.00
2022-10-17T09:41:46.377Z,38.00
2022-10-17T09:44:19.556Z,37.80
2022-10-17T09:47:20.475Z,37.30
2022-10-17T09:49:48.691Z,35.50
2022-10-17T09:52:20.904Z,35.10
2022-10-17T09:54:51.956Z,35.70
2022-10-17T09:57:20.687Z,35.10
2022-10-17T09:59:56.933Z,32.80
2022-10-17T10:02:25.384Z,32.00
2022-10-17T10:05:16.286Z,32.10
2022-10-17T10:07:46.046Z,31.90
2022-10-17T10:10:28.178Z,32.10
2022-10-17T10:13:16.160Z,31.10
2022-10-17T10:15:45.782Z,30.60
2022-10-17T10:18:36.075Z,30.60
2022-10-17T10:21:21.554Z,30.50
2022-10-17T10:24:19.337Z,29.40
2022-10-17T10:26:50.890Z,29.70
2022-10-17T10:29:41.535Z,29.80
2022-10-17T10:32:30.657Z,29.50
2022-10-17T10:35:18.961Z,30.20
2022-10-17T10:37:50.828Z,31.20
2022-10-17T10:40:49.865Z,31.10
2022-10-17T10:43:42.937Z,31.40
2022-10-17T10:46:36.300Z,31.60
2022-10-17T10:49:03.364Z,33.00
2022-10-17T10:51:41.368Z,33.20
2022-10-17T10:54:34.262Z,33.30
2022-10-17T10:57:05.046Z,34.80
2022-10-17T10:59:47.432Z,34.80
2022-10-17T11:02:26.843Z,34.50
2022-10-17T11:04:59.474Z,35.50
2022-10-17T11:07:28.913Z,36.90
2022-10-17T11:10:00.688Z,35.90
2022-10-17T11:12:30.346Z,35.70
2022-10-17T11:15:21.704Z,37.40
2022-10-17T11:17:59.351Z,36.30
2022-10-17T11:20:30.326Z,36.20
2022-10-17T11:23:19.736Z,36.20
2022-10-17T11:25:53.565Z,37.00
2022-10-17T11:28:22.261Z,36.60
2022-10-17T11:31:03.364Z,37.20
2022-10-17T11:33:50.618Z,37.50
2022-10-17T11:36:21.085Z,37.40
2022-10-17T11:39:00.177Z,37.00
2022-10-17T11:41:46.199Z,37.00
2022-10-17T11:44:22.061Z,36.60
2022-10-17T11:46:54.633Z,37.10
2022-10-17T11:52:03.143Z,37.50
2022-10-17T11:54:38.161Z,37.90
2022-10-17T11:57:29.562Z,36.70
2022-10-17T12:00:18.270Z,37.80
2022-10-17T12:03:21.631Z,37.50
2022-10-17T12:06:11.965Z,37.30
2022-10-17T12:08:52.030Z,38.60
2022-10-17T12:11:50.769Z,37.60
2022-10-17T12:14:46.649Z,38.00
2022-10-17T12:17:39.312Z,37.80
2022-10-17T12:20:21.722Z,38.00
2022-10-17T12:22:50.478Z,38.40
2022-10-17T12:25:24.049Z,37.90
2022-10-17T12:27:51.274Z,37.90
2022-10-17T12:30:19.685Z,37.90
2022-10-17T12:33:06.091Z,37.40
2022-10-17T12:35:35.604Z,37.70
2022-10-17T12:38:04.181Z,38.00
2022-10-17T12:40:37.185Z,38.40
2022-10-17T12:43:29.561Z,37.30
2022-10-17T12:45:57.156Z,37.90
2022-10-17T12:48:39.505Z,37.00
2022-10-17T12:54:15.127Z,36.90
2022-10-17T12:56:45.326Z,37.10
2022-10-17T12:59:17.412Z,37.50
2022-10-17T13:01:47.466Z,37.60
2022-10-17T13:04:15.492Z,38.20
2022-10-17T13:06:48.152Z,38.40
2022-10-17T13:09:30.761Z,38.50
2022-10-17T13:12:00.826Z,38.60
2022-10-17T13:14:28.480Z,38.70
2022-10-17T13:16:59.611Z,39.20
2022-10-17T13:19:30.668Z,39.20
2022-10-17T13:22:06.767Z,39.20
2022-10-17T13:24:37.869Z,39.40
2022-10-17T13:27:06.691Z,39.40
2022-10-17T13:29:33.623Z,39.10
2022-10-17T13:32:05.479Z,39.20
2022-10-17T13:34:34.021Z,39.30
2022-10-17T13:37:07.015Z,39.80
2022-10-17T13:39:55.833Z,39.90
2022-10-17T13:42:27.706Z,39.80
2022-10-17T13:44:56.082Z,39.90
2022-10-17T13:47:25.809Z,39.90
2022-10-17T13:49:55.478Z,39.40
2022-10-17T13:52:25.777Z,38.50
2022-10-17T13:54:53.825Z,38.20
2022-10-17T13:57:29.655Z,38.30
2022-10-17T13:59:59.637Z,38.40
2022-10-17T14:02:30.853Z,38.50
2022-10-17T14:05:18.947Z,39.00
2022-10-17T14:08:13.361Z,39.30
2022-10-17T14:10:43.575Z,39.60
2022-10-17T14:13:28.285Z,39.90
2022-10-17T14:15:57.793Z,39.90
2022-10-17T14:18:36.185Z,40.40
2022-10-17T14:21:40.515Z,41.40
2022-10-17T14:24:11.474Z,41.00
2022-10-17T14:26:54.375Z,41.20
2022-10-17T14:29:25.716Z,41.90
2022-10-17T14:32:05.119Z,42.10
2022-10-17T14:34:40.795Z,42.20
2022-10-17T14:37:13.134Z,42.30
2022-10-17T14:39:40.107Z,42.70
2022-10-17T14:42:07.157Z,42.90
2022-10-17T14:44:36.356Z,43.00
2022-10-17T14:47:30.673Z,43.10
2022-10-17T14:50:18.859Z,43.20
2022-10-17T14:53:00.353Z,42.40
2022-10-17T14:55:29.835Z,41.60
2022-10-17T14:57:56.657Z,41.70
2022-10-17T15:00:23.901Z,41.90
2022-10-17T15:02:52.676Z,42.20
2022-10-17T15:05:20.448Z,42.40
2022-10-17T15:07:47.445Z,42.50
2022-10-17T15:10:34.020Z,42.50
2022-10-17T15:13:26.515Z,42.80
2022-10-17T15:15:51.906Z,43.10
2022-10-17T15:18:18.937Z,43.10
2022-10-17T15:20:45.621Z,43.70
2022-10-17T15:23:12.324Z,43.90
2022-10-17T15:25:39.575Z,43.90
2022-10-17T15:28:06.533Z,43.90
2022-10-17T15:30:36.333Z,44.10
2022-10-17T15:33:03.115Z,44.30
2022-10-17T15:35:30.267Z,44.40
2022-10-17T15:37:57.202Z,44.60
2022-10-17T15:40:29.198Z,44.90
2022-10-17T15:42:56.465Z,44.60
2022-10-17T15:45:23.860Z,44.80
2022-10-17T15:47:58.776Z,44.90
2022-10-17T15:50:25.559Z,45.00
2022-10-17T15:52:52.557Z,45.20
2022-10-17T15:55:19.970Z,45.40
2022-10-17T15:57:48.747Z,45.50
2022-10-17T16:00:33.708Z,45.80
2022-10-17T16:03:00.557Z,46.00
2022-10-17T16:05:28.508Z,46.40
2022-10-17T16:07:55.839Z,46.70
2022-10-17T16:10:23.423Z,47.40
2022-10-17T16:12:50.652Z,47.70
2022-10-17T16:15:23.646Z,48.20
2022-10-17T16:17:51.969Z,48.60
2022-10-17T16:20:19.824Z,49.00
2022-10-17T16:22:47.254Z,49.10
2022-10-17T16:25:25.285Z,49.50
2022-10-17T16:27:54.933Z,50.70
2022-10-17T16:32:55.498Z,52.60
2022-10-17T16:35:25.013Z,53.10
2022-10-17T16:37:51.759Z,53.70
2022-10-17T16:40:18.669Z,54.30
2022-10-17T16:42:45.648Z,55.10
2022-10-17T16:45:20.606Z,56.20
2022-10-17T16:47:47.971Z,56.20
2022-10-17T16:50:15.089Z,56.30
2022-10-17T16:52:42.393Z,57.30
2022-10-17T16:55:10.018Z,58.60
2022-10-17T16:57:36.916Z,59.40
2022-10-17T17:00:05.959Z,59.90
2022-10-17T17:02:33.066Z,61.00
2022-10-17T17:05:00.008Z,62.80
2022-10-17T17:07:29.362Z,63.80
2022-10-17T17:09:56.639Z,65.40
2022-10-17T17:12:23.368Z,67.20
2022-10-17T17:14:50.898Z,68.50
2022-10-17T17:17:30.365Z,69.60
2022-10-17T17:20:06.348Z,70.70
2022-10-17T17:22:33.167Z,72.00
2022-10-17T17:24:59.845Z,73.00
2022-10-17T17:27:28.898Z,73.80
2022-10-17T17:29:55.980Z,74.40
2022-10-17T17:32:22.721Z,75.00
2022-10-17T17:34:49.625Z,74.80
2022-10-17T17:37:16.363Z,75.20
2022-10-17T17:39:43.085Z,75.70
2022-10-17T17:42:09.822Z,76.30
2022-10-17T17:44:36.548Z,77.00
2022-10-17T17:47:03.278Z,77.20
2022-10-17T17:49:30.361Z,76.90
2022-10-17T17:51:57.167Z,77.80
2022-10-17T17:54:23.964Z,78.40
2022-10-17T17:56:50.736Z,79.20
2022-10-17T17:59:17.439Z,80.40
2022-10-17T18:01:44.396Z,80.50
2022-10-17T18:04:11.958Z,81.20
2022-10-17T18:06:39.615Z,81.10
2022-10-17T18:09:08.036Z,80.50
2022-10-17T18:11:35.579Z,81.70
2022-10-17T18:14:05.229Z,81.50
2022-10-17T18:16:33.650Z,81.00
2022-10-17T18:19:06.622Z,81.00
2022-10-17T18:21:34.252Z,80.50
2022-10-17T18:24:00.995Z,81.90
2022-10-17T18:26:28.368Z,83.10
2022-10-17T18:28:55.361Z,83.30
2022-10-17T18:31:28.637Z,82.50
2022-10-17T18:33:57.780Z,82.50
2022-10-17T18:36:26.199Z,82.50
2022-10-17T18:38:54.091Z,83.30
2022-10-17T18:41:23.134Z,84.00
2022-10-17T18:43:51.202Z,86.30
2022-10-17T18:46:20.495Z,85.90
2022-10-17T18:48:48.487Z,86.00
2022-10-17T18:51:16.992Z,85.20
2022-10-17T18:53:45.391Z,84.60
2022-10-17T18:56:13.241Z,84.60
2022-10-17T18:58:40.757Z,84.70
2022-10-17T19:01:15.382Z,84.90
2022-10-17T19:03:43.137Z,85.10
2022-10-17T19:06:11.338Z,85.20
2022-10-17T19:08:38.674Z,85.80
2022-10-17T19:11:10.616Z,84.80
2022-10-17T19:13:37.990Z,85.40
2022-10-17T19:16:09.561Z,86.10
2022-10-17T19:18:36.805Z,86.10
2022-10-17T19:21:05.400Z,87.90
2022-10-17T19:23:32.729Z,88.10
2022-10-17T19:26:09.009Z,87.90
2022-10-17T19:28:37.824Z,87.60
2022-10-17T19:31:06.368Z,87.80
2022-10-17T19:33:33.984Z,87.20
2022-10-17T19:36:11.633Z,86.50
2022-10-17T19:38:38.387Z,87.40
2022-10-17T19:41:07.152Z,88.30
2022-10-17T19:43:36.963Z,88.70
2022-10-17T19:46:05.507Z,88.30
2022-10-17T19:48:34.455Z,88.20
2022-10-17T19:51:01.147Z,87.50
2022-10-17T19:53:29.367Z,88.70
2022-10-17T19:55:57.290Z,89.40
2022-10-17T19:58:25.414Z,89.40
2022-10-17T20:00:55.399Z,90.00
2022-10-17T20:03:22.882Z,89.90
2022-10-17T20:05:49.619Z,89.60
2022-10-17T20:08:17.566Z,89.20
2022-10-17T20:10:44.641Z,88.70
2022-10-17T20:13:11.625Z,89.80
2022-10-17T20:15:38.923Z,90.00
2022-10-17T20:18:06.524Z,89.80
2022-10-17T20:20:36.826Z,89.80
2022-10-17T20:23:04.382Z,89.30
2022-10-17T20:25:33.318Z,89.00
2022-10-17T20:28:00.118Z,88.50
2022-10-17T20:30:26.903Z,86.80
2022-10-17T20:32:55.605Z,86.70
2022-10-17T20:35:22.736Z,86.30
2022-10-17T20:37:49.671Z,85.80
2022-10-17T20:40:34.116Z,85.70
2022-10-17T20:43:01.277Z,85.90
2022-10-17T20:45:43.601Z,86.30
2022-10-17T20:48:15.704Z,86.30
2022-10-17T20:50:43.686Z,88.20
2022-10-17T20:53:35.515Z,88.80
2022-10-17T20:56:09.313Z,89.00
2022-10-17T20:58:36.326Z,89.20
2022-10-17T21:01:10.165Z,88.10
2022-10-17T21:03:41.037Z,88.90
2022-10-17T21:06:11.250Z,87.50
2022-10-17T21:08:38.220Z,87.40
2022-10-17T21:11:28.577Z,87.20
2022-10-17T21:14:00.588Z,86.70
2022-10-17T21:16:28.388Z,85.80
2022-10-17T21:18:56.063Z,85.10
2022-10-17T21:21:28.479Z,84.50
2022-10-17T21:23:58.629Z,85.00
2022-10-17T21:26:25.324Z,85.70
2022-10-17T21:28:52.369Z,86.30
2022-10-17T21:31:23.736Z,85.80
2022-10-17T21:33:53.334Z,85.20
2022-10-17T21:36:20.551Z,85.60
2022-10-17T21:38:49.562Z,85.60
2022-10-17T21:41:21.871Z,85.60
2022-10-17T21:43:52.272Z,86.00
2022-10-17T21:46:19.694Z,86.40
2022-10-17T21:48:47.953Z,86.30
2022-10-17T21:51:17.531Z,86.10
2022-10-17T21:53:44.740Z,85.60
2022-10-17T21:56:18.089Z,85.40
2022-10-17T21:58:45.256Z,85.40
2022-10-17T22:01:17.715Z,85.90
2022-10-17T22:03:49.389Z,87.20
2022-10-17T22:06:38.566Z,87.60
2022-10-17T22:09:07.288Z,87.60
2022-10-17T22:11:35.504Z,87.60
2022-10-17T22:14:06.241Z,88.60
2022-10-17T22:16:34.444Z,88.50
2022-10-17T22:19:06.138Z,87.90
2022-10-17T22:21:35.008Z,88.00
2022-10-17T22:24:04.327Z,87.00
2022-10-17T22:26:32.801Z,86.50
2022-10-17T22:28:59.940Z,86.90
2022-10-17T22:31:26.914Z,87.00
2022-10-17T22:33:53.640Z,86.70
2022-10-17T22:36:20.328Z,86.90
2022-10-17T22:38:47.148Z,87.00
2022-10-17T22:41:13.893Z,87.10
2022-10-17T22:43:40.663Z,87.20
2022-10-17T22:46:07.857Z,86.90
2022-10-17T22:48:35.282Z,87.30
2022-10-17T22:51:02.022Z,87.00
2022-10-17T22:53:29.833Z,86.50
2022-10-17T22:56:01.825Z,85.90
2022-10-17T22:58:29.888Z,85.40
2022-10-17T23:00:57.480Z,85.70
2022-10-17T23:03:26.388Z,87.10
2022-10-17T23:05:53.188Z,87.40
2022-10-17T23:08:20.588Z,87.40
2022-10-17T23:10:47.980Z,87.80
2022-10-17T23:13:15.523Z,87.00
2022-10-17T23:15:43.365Z,88.10
2022-10-17T23:18:10.240Z,87.30
2022-10-17T23:20:37.881Z,87.10
2022-10-17T23:23:05.165Z,87.40
2022-10-17T23:25:34.208Z,87.30
2022-10-17T23:28:01.343Z,87.10
2022-10-17T23:30:28.521Z,87.30
2022-10-17T23:32:55.232Z,87.60
2022-10-17T23:35:21.992Z,88.50
2022-10-17T23:37:48.688Z,88.00
2022-10-17T23:40:15.471Z,87.90
2022-10-17T23:42:42.373Z,87.60
2022-10-17T23:45:09.532Z,87.00
2022-10-17T23:47:36.287Z,86.50
2022-10-17T23:50:03.999Z,86.60
2022-10-17T23:52:31.043Z,86.80
2022-10-17T23:54:57.987Z,86.20
2022-10-17T23:57:24.744Z,85.50
2022-10-17T23:59:51.461Z,85.00
